Gorman, California
Current Conditions -  °F | °C
As of 8:48 PM on Friday 28 Nov 2014 (Local Time) from KSDB Reporting Station
Clear Clear  
Wind Chill: 58°   Ceiling: Unl
Heat Index: 58°   Visibility: 10mi
Dew Point: 18°   Wind: 5mph
Humidity: 21%   Direction: 220°SW
Pressure: 30.04"   Gusts: NA
Location:  34.75°N, 118.73°W
Report Text: KSDB 290448Z AUTO 22004KT 10SM CLR 14/M08 A3004 RMK AO2 SLP127 T01441078
Loading
Personal Weather Stations






























Interactive Weather Map New forecast layout! Learn more

10-Day Weather Forecast

Advertisements
Track Severe Weather on mobile